Time;durP1;ratioP1;P1;durP2;ratioP2;P2;SDS_P1;SDS_P2;PMS_P1;PMS_P2;Temp;Humidity;BMP_temperature;BMP_pressure;BME280_temperature;BME280_humidity;BME280_pressure;Samples;Min_cycle;Max_cycle;Signal;HPM_P1;HPM_P2
2022/05/18 00:00:37;;;;;;;10.50;4.93;;;;;;;;;;5049765;28;20456;-73
2022/05/18 00:03:09;;;;;;;7.15;4.22;;;18.30;99.90;;;;;;5030667;28;20979;-72
2022/05/18 00:05:38;;;;;;;6.75;4.30;;;18.20;99.90;;;;;;5050105;28;20928;-72
2022/05/18 00:08:05;;;;;;;8.55;4.43;;;18.30;99.90;;;;;;5049924;28;20484;-72
2022/05/18 00:10:32;;;;;;;6.93;4.47;;;18.30;99.90;;;;;;5033798;28;20414;-71
2022/05/18 00:12:58;;;;;;;7.63;4.50;;;;;;;;;;5048644;28;20409;-72
2022/05/18 00:15:26;;;;;;;8.07;4.70;;;18.10;99.90;;;;;;5033733;28;20463;-72
2022/05/18 00:17:53;;;;;;;8.85;4.43;;;17.90;99.90;;;;;;5048441;28;20951;-72
2022/05/18 00:20:20;;;;;;;8.67;4.47;;;17.80;99.90;;;;;;5050589;28;20510;-73
2022/05/18 00:22:48;;;;;;;8.05;4.60;;;18.00;99.90;;;;;;5049946;28;20428;-72
2022/05/18 00:25:15;;;;;;;8.70;4.90;;;;;;;;;;5033190;28;20430;-72
2022/05/18 00:27:41;;;;;;;8.15;4.65;;;17.90;99.90;;;;;;5048670;28;20920;-72
2022/05/18 00:30:08;;;;;;;8.07;4.87;;;18.00;99.90;;;;;;5050134;28;20408;-72
2022/05/18 00:32:34;;;;;;;6.75;4.70;;;;;;;;;;5050226;28;20428;-71
2022/05/18 00:35:00;;;;;;;9.25;5.35;;;17.70;99.90;;;;;;5050153;28;20769;-71
2022/05/18 00:37:25;;;;;;;9.07;5.03;;;17.60;99.90;;;;;;5031222;28;20414;-73
2022/05/18 00:39:51;;;;;;;8.63;4.97;;;17.80;99.90;;;;;;5048599;28;20828;-72
2022/05/18 00:42:22;;;;;;;8.53;5.10;;;17.70;99.90;;;;;;5044560;28;20427;-72
2022/05/18 00:44:47;;;;;;;8.75;5.30;;;17.70;99.90;;;;;;5043458;28;20785;-72
2022/05/18 00:47:14;;;;;;;11.55;5.25;;;;;;;;;;5049111;28;20504;-72
2022/05/18 00:49:42;;;;;;;10.30;5.80;;;18.00;99.90;;;;;;5050543;28;20421;-72
2022/05/18 00:52:09;;;;;;;8.68;5.65;;;17.70;99.90;;;;;;5049189;28;20425;-73
2022/05/18 00:54:36;;;;;;;9.55;5.30;;;;;;;;;;5049250;28;20508;-73
2022/05/18 00:57:10;;;;;;;8.65;5.63;;;17.60;99.90;;;;;;5048103;28;20504;-72
2022/05/18 01:00:05;;;;;;;9.40;5.70;;;17.40;99.90;;;;;;5050057;28;20425;-72
2022/05/18 01:02:35;;;;;;;10.45;5.80;;;17.40;99.90;;;;;;5038225;28;20489;-73
2022/05/18 01:05:05;;;;;;;10.73;6.10;;;17.40;99.90;;;;;;5042172;28;20504;-73
2022/05/18 01:07:36;;;;;;;8.75;5.60;;;17.50;99.90;;;;;;5031632;28;20769;-73
2022/05/18 01:10:03;;;;;;;10.53;6.43;;;17.20;99.90;;;;;;5048894;28;20738;-73
2022/05/18 01:12:28;;;;;;;9.48;5.82;;;17.20;99.90;;;;;;5049327;28;20453;-73
2022/05/18 01:14:59;;;;;;;9.90;6.13;;;17.30;99.90;;;;;;5032058;28;20465;-72
2022/05/18 01:17:28;;;;;;;9.57;5.78;;;;;;;;;;5050069;28;20421;-72
2022/05/18 01:19:57;;;;;;;9.37;6.03;;;17.30;99.90;;;;;;5048532;28;20413;-72
2022/05/18 01:22:48;;;;;;;10.75;6.10;;;17.50;99.90;;;;;;5048556;28;20433;-71
2022/05/18 01:25:26;;;;;;;9.07;6.20;;;;;;;;;;5047862;28;20486;-72
2022/05/18 01:27:52;;;;;;;9.55;5.80;;;;;;;;;;5046984;28;20429;-72
2022/05/18 01:30:19;;;;;;;9.73;5.97;;;17.10;99.90;;;;;;5048485;28;20420;-72
2022/05/18 01:32:48;;;;;;;10.02;5.70;;;;;;;;;;5038864;28;20787;-72
2022/05/18 01:35:19;;;;;;;10.32;6.10;;;17.50;99.90;;;;;;5028535;28;20904;-71
2022/05/18 01:37:46;;;;;;;9.15;6.05;;;17.20;99.90;;;;;;5047489;28;20425;-73
2022/05/18 01:40:25;;;;;;;8.20;5.60;;;17.30;99.90;;;;;;5049204;28;20483;-73
2022/05/18 01:43:14;;;;;;;12.50;6.07;;;17.40;99.90;;;;;;5043759;28;20439;-73
2022/05/18 01:45:40;;;;;;;8.52;5.80;;;;;;;;;;5027108;28;21419;-72
2022/05/18 01:48:12;;;;;;;9.63;5.90;;;17.50;99.90;;;;;;5038896;28;20479;-72
2022/05/18 01:50:39;;;;;;;9.82;6.07;;;;;;;;;;5047093;28;21061;-71
2022/05/18 01:53:05;;;;;;;12.57;6.03;;;;;;;;;;5024137;28;20793;-73
2022/05/18 01:55:32;;;;;;;9.75;5.90;;;;;;;;;;5048377;28;20757;-73
2022/05/18 01:57:58;;;;;;;9.55;6.03;;;;;;;;;;5046610;28;20418;-73
2022/05/18 02:00:25;;;;;;;11.60;6.03;;;17.40;99.90;;;;;;5048789;28;20475;-73
2022/05/18 02:02:51;;;;;;;8.50;5.80;;;;;;;;;;5048655;28;20504;-72
2022/05/18 02:05:16;;;;;;;9.95;5.95;;;17.30;99.90;;;;;;5032557;28;20913;-73
2022/05/18 02:07:42;;;;;;;8.68;5.97;;;;;;;;;;5031601;28;20425;-73
2022/05/18 02:10:09;;;;;;;7.60;5.63;;;17.30;99.90;;;;;;5051127;28;20425;-72
2022/05/18 02:12:35;;;;;;;8.80;6.00;;;17.30;99.90;;;;;;5051429;28;20781;-72
2022/05/18 02:15:03;;;;;;;8.55;5.53;;;17.30;99.90;;;;;;5052184;28;20429;-71
2022/05/18 02:17:30;;;;;;;9.55;5.50;;;17.30;99.90;;;;;;5050457;28;20773;-74
2022/05/18 02:19:57;;;;;;;8.52;5.30;;;;;;;;;;5052510;28;20483;-72
2022/05/18 02:22:24;;;;;;;9.02;5.60;;;17.00;99.90;;;;;;5052567;28;20445;-72
2022/05/18 02:24:50;;;;;;;8.65;5.70;;;17.20;99.90;;;;;;5035683;28;20924;-73
2022/05/18 02:27:16;;;;;;;9.20;6.05;;;;;;;;;;5041335;28;20830;-73
2022/05/18 02:29:42;;;;;;;8.80;5.50;;;;;;;;;;5052953;28;20397;-73
2022/05/18 02:32:09;;;;;;;10.18;6.20;;;17.00;99.90;;;;;;5032546;28;20846;-72
2022/05/18 02:34:35;;;;;;;9.02;6.40;;;16.90;99.90;;;;;;5033247;28;20411;-72
2022/05/18 02:37:02;;;;;;;8.03;5.90;;;;;;;;;;5012226;28;20485;-72
2022/05/18 02:39:28;;;;;;;11.77;6.40;;;;;;;;;;5046757;28;20436;-71
2022/05/18 02:41:54;;;;;;;9.40;6.47;;;;;;;;;;5051148;28;20424;-73
2022/05/18 02:44:20;;;;;;;11.70;6.60;;;16.80;99.90;;;;;;5037439;28;20429;-72
2022/05/18 02:46:46;;;;;;;8.82;6.50;;;16.90;99.90;;;;;;5029844;28;20761;-73
2022/05/18 02:49:12;;;;;;;9.45;6.32;;;;;;;;;;5050846;28;20463;-73
2022/05/18 02:51:39;;;;;;;9.95;6.55;;;;;;;;;;5050775;28;20504;-73
2022/05/18 02:56:05;;;;;;;9.73;6.32;;;16.70;99.90;;;;;;5050895;28;20429;-73
2022/05/18 02:56:52;;;;;;;10.00;6.40;;;;;;;;;;5045155;28;20435;-73
2022/05/18 02:59:19;;;;;;;11.07;6.45;;;16.30;99.90;;;;;;5028636;28;20476;-72
2022/05/18 03:01:45;;;;;;;10.43;7.22;;;;;;;;;;5050909;28;20424;-73
2022/05/18 03:04:12;;;;;;;13.02;7.22;;;;;;;;;;5050997;28;20432;-73
2022/05/18 03:06:38;;;;;;;9.98;7.10;;;16.40;99.90;;;;;;5033963;28;20913;-72
2022/05/18 03:09:04;;;;;;;10.63;6.80;;;;;;;;;;5049530;28;20462;-72
2022/05/18 03:11:30;;;;;;;11.33;6.93;;;16.20;99.90;;;;;;5032173;28;20426;-72
2022/05/18 03:13:56;;;;;;;11.30;6.27;;;;;;;;;;5050242;28;20460;-73
2022/05/18 03:16:23;;;;;;;10.23;7.40;;;;;;;;;;5033970;28;20421;-73
2022/05/18 03:18:49;;;;;;;9.67;6.67;;;;;;;;;;5032443;28;20449;-73
2022/05/18 03:23:59;;;;;;;10.55;7.03;;;;;;;;;;5035003;28;20437;-73
2022/05/18 03:26:26;;;;;;;10.10;6.85;;;16.20;99.90;;;;;;5047397;28;20470;-73
2022/05/18 03:28:55;;;;;;;11.18;7.15;;;;;;;;;;5050921;28;20453;-72
2022/05/18 03:31:21;;;;;;;11.73;7.18;;;16.30;99.90;;;;;;5051374;28;20723;-72
2022/05/18 03:33:47;;;;;;;11.77;7.13;;;16.00;99.90;;;;;;5050358;28;20429;-73
2022/05/18 03:36:15;;;;;;;11.23;7.18;;;;;;;;;;5033109;28;20457;-72
2022/05/18 03:38:42;;;;;;;12.13;7.28;;;16.00;99.90;;;;;;5050961;28;20420;-71
2022/05/18 03:41:09;;;;;;;10.57;7.45;;;;;;;;;;5049392;28;20751;-71
2022/05/18 03:43:35;;;;;;;13.07;7.25;;;;;;;;;;5032487;28;20429;-71
2022/05/18 03:46:02;;;;;;;12.35;7.50;;;16.10;99.90;;;;;;5050212;28;20417;-72
2022/05/18 03:48:29;;;;;;;11.05;7.63;;;15.90;99.90;;;;;;5021265;28;20419;-72
2022/05/18 03:50:57;;;;;;;10.40;7.27;;;15.90;99.90;;;;;;5029283;28;20647;-72
2022/05/18 03:53:23;;;;;;;11.13;6.93;;;;;;;;;;5048468;28;20429;-72
2022/05/18 03:55:49;;;;;;;10.57;7.43;;;;;;;;;;5048289;28;20459;-71
2022/05/18 03:58:16;;;;;;;12.17;7.67;;;;;;;;;;5032266;28;20925;-72
2022/05/18 04:00:44;;;;;;;13.55;8.15;;;15.80;99.90;;;;;;5050167;28;20948;-71
2022/05/18 04:03:10;;;;;;;10.07;7.70;;;;;;;;;;5050294;28;20401;-71
2022/05/18 04:05:38;;;;;;;11.27;8.20;;;15.60;99.90;;;;;;5049089;28;20425;-72
2022/05/18 04:08:04;;;;;;;11.40;7.90;;;;;;;;;;5047937;28;20805;-71
2022/05/18 04:10:30;;;;;;;11.03;7.67;;;;;;;;;;5049778;28;20981;-72
2022/05/18 04:12:57;;;;;;;11.00;8.38;;;;;;;;;;5046620;28;20421;-72
2022/05/18 04:15:23;;;;;;;11.23;8.10;;;;;;;;;;5033512;28;20429;-71
2022/05/18 04:17:49;;;;;;;12.10;8.20;;;15.80;99.90;;;;;;5048615;28;21954;-71
2022/05/18 04:20:16;;;;;;;11.65;8.25;;;;;;;;;;5033467;28;20494;-72
2022/05/18 04:22:42;;;;;;;11.10;7.80;;;15.80;99.90;;;;;;5048714;28;20494;-72
2022/05/18 04:25:10;;;;;;;11.05;8.48;;;;;;;;;;5048210;28;20421;-72
2022/05/18 04:27:35;;;;;;;11.93;8.27;;;15.80;99.90;;;;;;5030999;28;20415;-73
2022/05/18 04:30:01;;;;;;;10.15;7.70;;;;;;;;;;5021409;28;20775;-70
2022/05/18 04:32:28;;;;;;;11.75;8.32;;;;;;;;;;5048916;28;20565;-70
2022/05/18 04:34:53;;;;;;;12.70;8.70;;;16.20;99.90;;;;;;5050379;28;20893;-71
2022/05/18 04:37:20;;;;;;;11.70;8.60;;;16.10;99.90;;;;;;5047979;28;20447;-71
2022/05/18 04:39:46;;;;;;;12.82;8.60;;;;;;;;;;5048870;28;20418;-72
2022/05/18 04:42:14;;;;;;;13.47;8.60;;;16.10;99.90;;;;;;5050188;28;20526;-72
2022/05/18 04:44:40;;;;;;;10.65;8.35;;;16.50;99.90;;;;;;5049602;28;20425;-71
2022/05/18 04:47:06;;;;;;;11.47;8.97;;;;;;;;;;5022562;28;20439;-71
2022/05/18 04:49:32;;;;;;;15.45;9.27;;;16.40;99.90;;;;;;5037353;28;20417;-72
2022/05/18 04:51:59;;;;;;;12.13;8.93;;;;;;;;;;5050256;28;20417;-72
2022/05/18 04:54:24;;;;;;;14.23;9.63;;;16.40;99.90;;;;;;5028647;28;20523;-71
2022/05/18 04:56:50;;;;;;;12.63;9.10;;;;;;;;;;5047411;28;20964;-71
2022/05/18 04:59:16;;;;;;;13.48;8.60;;;;;;;;;;5048139;28;20429;-70
2022/05/18 05:01:43;;;;;;;13.45;8.95;;;16.50;99.90;;;;;;5045506;28;20487;-72
2022/05/18 05:04:09;;;;;;;12.32;9.18;;;16.20;99.90;;;;;;5050272;28;20429;-72
2022/05/18 05:06:40;;;;;;;13.77;9.57;;;16.50;99.90;;;;;;5048185;28;20981;-73
2022/05/18 05:09:07;;;;;;;11.82;9.35;;;;;;;;;;5032251;28;20455;-71
2022/05/18 05:11:33;;;;;;;13.70;9.98;;;;;;;;;;5050761;28;20393;-72
2022/05/18 05:13:58;;;;;;;14.32;9.52;;;16.80;99.90;;;;;;5046374;28;20848;-71
2022/05/18 05:16:26;;;;;;;14.60;9.65;;;;;;;;;;5027367;28;20433;-72
2022/05/18 05:18:52;;;;;;;13.85;9.95;;;16.60;99.90;;;;;;5051513;28;20461;-72
2022/05/18 05:21:17;;;;;;;12.80;9.70;;;16.80;99.90;;;;;;5052763;28;20433;-71
2022/05/18 05:23:43;;;;;;;15.25;10.20;;;16.70;99.90;;;;;;5041793;28;20469;-71
2022/05/18 05:26:09;;;;;;;14.45;9.77;;;;;;;;;;5057135;28;20492;-72
2022/05/18 05:28:35;;;;;;;14.35;10.10;;;16.70;99.90;;;;;;5035314;28;20457;-72
2022/05/18 05:31:03;;;;;;;12.63;9.90;;;16.90;99.90;;;;;;5052062;28;20538;-73
2022/05/18 05:33:29;;;;;;;13.25;10.32;;;;;;;;;;5051413;28;20417;-73
2022/05/18 05:35:55;;;;;;;13.10;9.95;;;;;;;;;;5047579;28;20507;-73
2022/05/18 05:38:21;;;;;;;14.52;10.75;;;;;;;;;;5048402;28;21967;-73
2022/05/18 05:40:46;;;;;;;16.10;10.43;;;17.40;99.90;;;;;;5049952;28;20433;-73
2022/05/18 05:43:13;;;;;;;14.97;10.23;;;;;;;;;;5030330;28;20515;-73
2022/05/18 05:45:39;;;;;;;17.03;10.47;;;17.60;99.90;;;;;;5034646;28;20473;-72
2022/05/18 05:48:06;;;;;;;12.77;10.57;;;17.40;99.90;;;;;;5050245;28;20421;-71
2022/05/18 05:50:32;;;;;;;14.15;10.95;;;17.40;99.90;;;;;;5040296;28;20785;-73
2022/05/18 05:52:59;;;;;;;15.50;10.82;;;17.70;99.90;;;;;;5054493;28;20456;-73
2022/05/18 05:55:25;;;;;;;13.20;10.95;;;;;;;;;;5047129;28;20932;-73
2022/05/18 05:57:55;;;;;;;14.52;10.82;;;17.90;99.90;;;;;;5048643;28;20798;-74
2022/05/18 06:00:23;;;;;;;17.05;11.20;;;18.10;99.90;;;;;;5021896;28;20432;-73
2022/05/18 06:02:50;;;;;;;14.50;11.13;;;;;;;;;;5038791;28;20480;-73
2022/05/18 06:05:17;;;;;;;18.75;11.60;;;18.30;99.90;;;;;;5037192;28;20436;-73
2022/05/18 06:07:43;;;;;;;14.50;11.10;;;;;;;;;;5024438;28;20503;-73
2022/05/18 06:10:09;;;;;;;16.10;11.73;;;18.50;99.90;;;;;;5042018;28;20409;-72
2022/05/18 06:12:36;;;;;;;15.52;11.00;;;18.60;99.90;;;;;;5037123;28;20669;-72
2022/05/18 06:15:03;;;;;;;15.57;11.65;;;18.30;99.90;;;;;;5054116;28;20901;-74
2022/05/18 06:17:29;;;;;;;15.95;11.85;;;18.20;99.90;;;;;;5056095;28;20904;-74
2022/05/18 06:19:54;;;;;;;15.70;11.70;;;18.50;99.90;;;;;;5055504;28;20401;-73
2022/05/18 06:22:20;;;;;;;14.52;11.27;;;18.70;99.90;;;;;;5053163;28;20429;-73
2022/05/18 06:24:49;;;;;;;16.47;11.33;;;18.80;99.90;;;;;;5037847;28;20429;-73
2022/05/18 06:27:15;;;;;;;17.45;11.43;;;19.10;99.90;;;;;;5037791;28;20810;-74
2022/05/18 06:29:41;;;;;;;17.65;11.65;;;19.30;99.90;;;;;;5021471;28;20452;-74
2022/05/18 06:32:07;;;;;;;15.10;11.48;;;19.10;99.90;;;;;;5051286;28;20522;-72
2022/05/18 06:34:33;;;;;;;16.10;11.93;;;19.30;99.90;;;;;;5037652;28;20429;-72
2022/05/18 06:36:59;;;;;;;14.25;11.23;;;;;;;;;;5052905;28;20429;-72
2022/05/18 06:39:25;;;;;;;18.05;11.82;;;19.60;99.90;;;;;;5051416;28;20436;-73
2022/05/18 06:41:50;;;;;;;16.23;11.80;;;19.80;99.90;;;;;;5036768;28;20910;-74
2022/05/18 06:44:17;;;;;;;15.45;11.73;;;20.00;99.90;;;;;;5053690;28;20429;-73
2022/05/18 06:46:43;;;;;;;17.25;10.93;;;20.10;99.90;;;;;;5051415;28;20482;-73
2022/05/18 06:49:11;;;;;;;18.83;11.68;;;19.80;99.90;;;;;;5037495;28;20481;-73
2022/05/18 06:51:40;;;;;;;16.48;11.18;;;20.40;99.90;;;;;;5034504;28;20427;-73
2022/05/18 06:54:07;;;;;;;16.80;11.23;;;20.50;99.90;;;;;;5053380;28;20490;-74
2022/05/18 06:56:35;;;;;;;16.40;11.10;;;20.60;99.90;;;;;;5055003;28;20401;-73
2022/05/18 06:59:03;;;;;;;15.45;10.90;;;20.40;99.90;;;;;;5051758;28;20421;-73
2022/05/18 07:01:29;;;;;;;13.10;10.45;;;20.90;99.90;;;;;;5033183;28;20422;-73
2022/05/18 07:03:56;;;;;;;17.98;10.93;;;21.00;99.90;;;;;;5064181;28;20436;-72
2022/05/18 07:06:24;;;;;;;12.10;10.27;;;20.90;99.90;;;;;;5054063;28;20916;-74
2022/05/18 07:08:51;;;;;;;15.80;10.25;;;;;;;;;;5052250;28;20405;-73
2022/05/18 07:11:18;;;;;;;13.05;9.77;;;21.20;99.90;;;;;;5034664;28;20926;-73
2022/05/18 07:13:46;;;;;;;13.82;9.00;;;18.60;99.90;;;;;;5052417;28;20987;-73
2022/05/18 07:16:12;;;;;;;13.60;8.70;;;21.50;99.90;;;;;;5052232;28;20433;-74
2022/05/18 07:18:38;;;;;;;11.93;8.30;;;21.60;99.90;;;;;;5052344;28;20481;-74
2022/05/18 07:21:06;;;;;;;12.15;8.25;;;22.20;99.90;;;;;;5051751;28;20431;-73
2022/05/18 07:23:32;;;;;;;10.90;8.03;;;21.80;99.90;;;;;;5035358;28;20436;-72
2022/05/18 07:25:59;;;;;;;9.45;7.35;;;22.00;99.90;;;;;;5049985;28;20560;-72
2022/05/18 07:28:25;;;;;;;11.93;8.18;;;22.30;99.90;;;;;;5049493;28;20478;-72
2022/05/18 07:30:52;;;;;;;10.52;7.88;;;22.50;99.90;;;;;;5068754;28;20525;-73
2022/05/18 07:33:20;;;;;;;10.95;8.00;;;22.40;99.90;;;;;;5052668;28;20984;-72
2022/05/18 07:35:46;;;;;;;11.70;7.78;;;22.60;99.90;;;;;;5034186;28;20419;-74
2022/05/18 07:38:13;;;;;;;11.90;8.57;;;23.10;99.90;;;;;;5050422;28;20421;-74
2022/05/18 07:40:39;;;;;;;11.43;7.88;;;22.70;99.90;;;;;;5035439;28;20505;-73
2022/05/18 07:43:04;;;;;;;10.07;7.65;;;22.90;99.90;;;;;;5035551;28;20504;-74
2022/05/18 07:45:30;;;;;;;11.17;7.93;;;23.10;99.90;;;;;;5035425;28;20436;-73
2022/05/18 07:47:56;;;;;;;10.43;7.37;;;23.10;99.90;;;;;;5047623;28;20417;-74
2022/05/18 07:50:24;;;;;;;11.50;7.30;;;23.60;99.90;;;;;;5035785;28;20513;-73
2022/05/18 07:52:52;;;;;;;12.05;7.70;;;23.60;99.90;;;;;;5052969;28;20436;-73
2022/05/18 07:55:19;;;;;;;11.07;7.78;;;23.90;99.90;;;;;;5049940;28;20421;-72
2022/05/18 07:57:44;;;;;;;9.68;6.85;;;24.10;99.90;;;;;;5048647;28;20459;-73
2022/05/18 08:00:12;;;;;;;10.70;6.50;;;24.30;99.90;;;;;;5052163;28;20417;-74
2022/05/18 08:02:38;;;;;;;9.05;6.03;;;24.10;99.90;;;;;;5034965;28;20413;-73
2022/05/18 08:05:05;;;;;;;8.85;6.45;;;24.20;99.90;;;;;;5035460;28;20516;-74
2022/05/18 08:07:32;;;;;;;9.27;6.65;;;24.40;99.90;;;;;;5035421;28;20417;-73
2022/05/18 08:15:27;;;;;;;12.10;6.93;;;24.60;99.90;;;;;;5050979;28;20480;-73
2022/05/18 08:17:53;;;;;;;11.30;8.00;;;24.70;99.90;;;;;;5048992;28;20425;-73
2022/05/18 08:20:22;;;;;;;13.60;7.63;;;24.60;99.90;;;;;;5052611;28;20474;-73
2022/05/18 08:22:48;;;;;;;14.40;8.23;;;24.60;99.90;;;;;;5031201;28;20521;-74
2022/05/18 08:25:14;;;;;;;11.82;7.90;;;24.50;99.90;;;;;;5044790;28;20521;-74
2022/05/18 08:27:45;;;;;;;10.82;7.43;;;24.60;99.90;;;;;;5050922;28;20421;-73
2022/05/18 08:30:14;;;;;;;10.70;7.32;;;24.80;99.90;;;;;;5044468;28;20450;-73
2022/05/18 08:32:40;;;;;;;11.82;7.32;;;25.30;99.90;;;;;;5047839;28;20424;-74
2022/05/18 08:35:09;;;;;;;9.82;7.45;;;25.40;99.90;;;;;;5068548;28;20777;-74
2022/05/18 08:37:39;;;;;;;15.10;8.40;;;25.50;99.90;;;;;;5052267;28;20478;-74
2022/05/18 08:40:07;;;;;;;14.70;8.00;;;25.40;99.90;;;;;;5052743;28;20795;-74
2022/05/18 08:42:34;;;;;;;13.30;8.52;;;25.60;99.90;;;;;;5052923;28;20428;-74
2022/05/18 08:45:01;;;;;;;12.35;8.73;;;25.80;99.90;;;;;;5048771;28;20426;-74
2022/05/18 08:47:39;;;;;;;15.35;8.70;;;25.60;99.90;;;;;;5034463;28;20432;-74
2022/05/18 08:50:13;;;;;;;11.68;8.65;;;25.60;99.90;;;;;;5052730;28;20428;-73
2022/05/18 08:53:40;;;;;;;14.30;8.80;;;25.80;99.90;;;;;;5052429;28;20729;-73
2022/05/18 08:56:21;;;;;;;13.27;8.37;;;25.90;99.90;;;;;;4954616;28;20438;-73
2022/05/18 08:58:50;;;;;;;17.17;8.00;;;25.90;99.90;;;;;;4976893;28;20432;-74
2022/05/18 09:01:40;;;;;;;13.65;8.32;;;26.10;99.90;;;;;;5028272;28;20447;-74
2022/05/18 09:04:12;;;;;;;12.53;7.87;;;25.70;99.90;;;;;;5031971;28;20429;-74
2022/05/18 09:06:49;;;;;;;14.05;8.55;;;26.40;99.90;;;;;;5048585;28;20414;-74
2022/05/18 09:12:10;;;;;;;12.70;8.30;;;26.40;99.90;;;;;;5043212;28;20421;-74
2022/05/18 09:14:38;;;;;;;12.82;8.05;;;26.30;99.90;;;;;;5045403;28;20432;-73
2022/05/18 09:17:27;;;;;;;16.20;8.93;;;26.40;99.90;;;;;;5053448;28;20424;-74
2022/05/18 09:20:22;;;;;;;13.33;8.77;;;26.30;99.90;;;;;;5046790;28;20436;-74
2022/05/18 09:23:07;;;;;;;11.75;8.57;;;26.40;99.90;;;;;;5049992;28;20440;-74
2022/05/18 09:25:53;;;;;;;14.63;9.38;;;27.20;99.90;;;;;;5042919;28;20421;-75
2022/05/18 09:28:42;;;;;;;15.25;9.63;;;26.80;99.90;;;;;;5035717;28;20461;-75
2022/05/18 09:31:30;;;;;;;14.17;9.73;;;26.80;99.90;;;;;;5048787;28;21031;-75
2022/05/18 09:34:31;;;;;;;15.93;9.80;;;26.70;99.90;;;;;;5053081;28;20420;-74
2022/05/18 09:37:25;;;;;;;14.90;8.97;;;27.00;99.90;;;;;;5052177;28;20924;-73
2022/05/18 09:40:14;;;;;;;13.40;9.25;;;27.20;99.90;;;;;;5049904;28;20833;-74
2022/05/18 09:42:45;;;;;;;15.57;9.80;;;27.20;99.90;;;;;;5029395;28;20933;-75
2022/05/18 09:45:19;;;;;;;14.48;10.20;;;26.90;99.90;;;;;;5052624;28;20487;-74
2022/05/18 09:47:59;;;;;;;13.70;10.00;;;27.00;99.90;;;;;;5050591;28;20836;-75
2022/05/18 09:50:26;;;;;;;14.05;9.23;;;27.10;99.90;;;;;;5057742;28;20474;-75
2022/05/18 09:52:52;;;;;;;16.00;11.05;;;27.10;99.90;;;;;;5054150;28;20460;-75
2022/05/18 09:55:22;;;;;;;14.32;10.32;;;26.90;99.90;;;;;;5050855;28;20455;-75
2022/05/18 09:57:55;;;;;;;14.20;10.73;;;26.80;99.90;;;;;;5053714;28;20460;-74
2022/05/18 10:00:26;;;;;;;17.05;10.85;;;26.90;99.90;;;;;;5058635;28;21070;-74
2022/05/18 10:08:45;;;;;;;14.45;10.98;;;27.60;99.90;;;;;;5051944;28;20827;-75
2022/05/18 10:11:24;;;;;;;16.95;11.82;;;27.40;99.90;;;;;;5053410;28;20415;-75
2022/05/18 10:13:55;;;;;;;14.43;10.75;;;27.40;99.90;;;;;;5051645;28;20901;-74
2022/05/18 10:16:40;;;;;;;11.95;9.70;;;27.70;99.90;;;;;;5051116;28;20417;-74
2022/05/18 10:19:16;;;;;;;12.60;9.18;;;27.50;99.90;;;;;;5054330;28;20421;-74
2022/05/18 10:21:53;;;;;;;12.57;8.13;;;27.30;99.90;;;;;;5054423;28;20926;-73
2022/05/18 10:24:45;;;;;;;11.70;7.75;;;27.60;99.90;;;;;;5052645;28;20448;-74
2022/05/18 10:27:13;;;;;;;12.93;8.00;;;28.00;99.90;;;;;;5051143;28;20425;-74
2022/05/18 10:29:40;;;;;;;11.93;8.25;;;28.40;99.90;;;;;;5049858;28;20893;-73
2022/05/18 10:32:23;;;;;;;13.43;10.85;;;28.00;99.90;;;;;;5050800;28;20421;-73
2022/05/18 10:34:51;;;;;;;12.52;9.23;;;28.40;99.90;;;;;;5053157;28;20425;-74
2022/05/18 10:37:37;;;;;;;11.57;8.50;;;28.00;99.90;;;;;;5034610;28;20462;-73
2022/05/18 10:40:17;;;;;;;13.98;9.32;;;28.20;99.90;;;;;;5053285;28;20496;-74
2022/05/18 10:42:48;;;;;;;11.15;8.45;;;28.20;99.90;;;;;;5030795;28;20429;-74
2022/05/18 10:45:33;;;;;;;12.45;9.98;;;28.20;99.90;;;;;;5037882;28;20501;-74
2022/05/18 10:48:20;;;;;;;12.50;9.23;;;28.50;99.90;;;;;;5050233;28;20425;-74
2022/05/18 10:50:47;;;;;;;15.70;10.20;;;28.50;99.90;;;;;;5052439;28;20421;-76
2022/05/18 10:53:13;;;;;;;18.05;12.77;;;28.80;99.90;;;;;;5049457;28;20433;-74
2022/05/18 10:55:57;;;;;;;17.33;12.70;;;28.70;99.90;;;;;;5049328;28;20911;-74
2022/05/18 10:58:30;;;;;;;16.27;12.13;;;28.70;99.90;;;;;;5050783;28;20459;-74
2022/05/18 11:01:02;;;;;;;16.10;12.53;;;28.70;99.90;;;;;;5054126;28;20429;-75
2022/05/18 11:03:46;;;;;;;13.75;10.05;;;28.70;99.90;;;;;;5054293;28;20429;-73
2022/05/18 11:06:28;;;;;;;13.65;9.20;;;28.40;99.90;;;;;;5045465;28;20421;-74
2022/05/18 11:08:58;;;;;;;12.32;8.80;;;28.50;99.90;;;;;;5055457;28;20389;-74
2022/05/18 11:11:41;;;;;;;12.15;9.82;;;29.10;99.90;;;;;;5051265;28;20457;-74
2022/05/18 11:14:13;;;;;;;15.13;11.07;;;29.20;99.90;;;;;;5051655;28;20489;-74
2022/05/18 11:17:10;;;;;;;14.93;9.57;;;29.10;99.90;;;;;;5049635;28;20929;-75
2022/05/18 11:20:13;;;;;;;11.82;9.20;;;28.80;99.90;;;;;;5055188;28;20405;-71
2022/05/18 11:23:20;;;;;;;11.95;8.93;;;29.10;99.90;;;;;;5053856;28;20405;-72
2022/05/18 11:26:28;;;;;;;13.63;8.13;;;28.80;99.90;;;;;;5028941;28;20438;-74
2022/05/18 11:29:16;;;;;;;12.18;9.15;;;29.60;99.90;;;;;;5052719;28;20433;-73
2022/05/18 11:31:55;;;;;;;12.43;7.82;;;29.50;99.90;;;;;;5052105;28;20486;-72
2022/05/18 11:34:39;;;;;;;10.03;8.13;;;29.60;99.90;;;;;;5051799;28;20417;-73
2022/05/18 11:37:20;;;;;;;15.90;9.88;;;29.70;99.90;;;;;;5051565;28;21257;-72
2022/05/18 11:40:11;;;;;;;10.88;9.00;;;29.60;99.90;;;;;;5029720;28;20444;-73
2022/05/18 11:42:46;;;;;;;12.82;10.10;;;29.80;99.90;;;;;;5030673;28;20424;-73
2022/05/18 11:45:47;;;;;;;16.05;12.75;;;29.50;99.90;;;;;;5053396;28;20422;-73
2022/05/18 11:48:38;;;;;;;16.55;13.05;;;29.50;99.90;;;;;;5049367;28;20417;-73
2022/05/18 11:51:24;;;;;;;14.43;11.50;;;29.60;99.90;;;;;;5021126;28;20929;-73
2022/05/18 11:54:22;;;;;;;13.52;11.27;;;29.30;99.90;;;;;;5051006;28;20429;-73
2022/05/18 11:57:03;;;;;;;13.27;10.90;;;29.60;99.90;;;;;;5007138;28;20824;-73
2022/05/18 11:59:57;;;;;;;11.57;7.45;;;29.60;99.90;;;;;;5032528;28;20425;-73
2022/05/18 12:02:42;;;;;;;11.13;7.70;;;29.50;99.90;;;;;;5073256;27;2029671;-71
2022/05/18 12:05:38;;;;;;;16.80;9.20;;;29.50;99.90;;;;;;5139437;27;20428;-71
2022/05/18 12:08:26;;;;;;;15.05;11.15;;;29.80;99.90;;;;;;5140839;27;20468;-70
2022/05/18 12:11:07;;;;;;;13.30;9.48;;;30.20;99.90;;;;;;5135318;27;20494;-71
2022/05/18 12:13:41;;;;;;;11.48;8.63;;;29.60;99.90;;;;;;5136379;27;20407;-71
2022/05/18 12:16:24;;;;;;;12.13;8.45;;;30.00;99.90;;;;;;5139985;27;20422;-71
2022/05/18 12:19:22;;;;;;;13.80;10.77;;;30.00;99.90;;;;;;5111159;27;20503;-70
2022/05/18 12:21:57;;;;;;;15.00;11.25;;;29.50;99.90;;;;;;5139568;27;20440;-71
2022/05/18 12:24:25;;;;;;;13.67;10.90;;;29.50;99.90;;;;;;5132343;27;20419;-71
2022/05/18 12:26:54;;;;;;;13.25;9.05;;;29.10;99.90;;;;;;5145030;27;20512;-71
2022/05/18 12:29:23;;;;;;;14.50;10.70;;;29.50;99.90;;;;;;5130110;27;20470;-72
2022/05/18 12:31:50;;;;;;;12.35;9.70;;;29.60;99.90;;;;;;5132866;27;20426;-72
2022/05/18 12:34:33;;;;;;;13.77;8.32;;;29.40;99.90;;;;;;5134892;27;20420;-71
2022/05/18 12:37:21;;;;;;;12.33;8.20;;;29.00;99.90;;;;;;5135647;27;20457;-72
2022/05/18 12:39:51;;;;;;;11.07;8.95;;;29.10;99.90;;;;;;5135966;27;20436;-72
2022/05/18 12:42:27;;;;;;;15.57;10.13;;;29.00;99.90;;;;;;5137964;27;20422;-72
2022/05/18 12:45:28;;;;;;;13.25;10.50;;;28.90;99.90;;;;;;5130238;27;20442;-73
2022/05/18 12:48:18;;;;;;;12.05;8.40;;;29.50;99.90;;;;;;5135120;27;21043;-73
2022/05/18 12:50:47;;;;;;;16.08;11.32;;;29.30;99.90;;;;;;5132151;27;20435;-73
2022/05/18 12:53:25;;;;;;;16.10;13.00;;;29.50;99.90;;;;;;5130257;27;21046;-72
2022/05/18 12:55:51;;;;;;;16.15;13.18;;;29.70;99.90;;;;;;5132755;27;20423;-72
2022/05/18 12:58:27;;;;;;;16.00;13.87;;;29.50;99.90;;;;;;5135898;27;20448;-69
2022/05/18 13:01:18;;;;;;;16.47;13.00;;;29.20;99.90;;;;;;5137860;27;20426;-71
2022/05/18 13:04:08;;;;;;;17.27;12.70;;;29.30;99.90;;;;;;5134845;27;20429;-71
2022/05/18 13:06:47;;;;;;;16.02;13.30;;;28.90;99.90;;;;;;5127326;27;20395;-71
2022/05/18 13:09:23;;;;;;;17.17;13.53;;;28.60;99.90;;;;;;5135592;27;20420;-70
2022/05/18 13:12:11;;;;;;;18.55;14.55;;;28.90;99.90;;;;;;5110696;28;20461;-71
2022/05/18 13:14:59;;;;;;;19.47;15.43;;;28.70;99.90;;;;;;5116481;27;21008;-72
2022/05/18 13:17:47;;;;;;;17.85;14.00;;;28.60;99.90;;;;;;5096721;28;21034;-71
2022/05/18 13:20:22;;;;;;;22.17;15.40;;;28.30;99.90;;;;;;5120783;27;20412;-71
2022/05/18 13:23:08;;;;;;;18.10;14.55;;;28.30;99.90;;;;;;5118080;27;20438;-73
2022/05/18 13:25:37;;;;;;;17.88;13.85;;;28.00;99.90;;;;;;5141728;27;20410;-78
2022/05/18 13:28:06;;;;;;;18.55;13.50;;;28.20;99.90;;;;;;5123490;27;20424;-81
2022/05/18 13:30:47;;;;;;;17.07;14.03;;;28.50;99.90;;;;;;5123652;27;20428;-78
2022/05/18 13:33:14;;;;;;;16.50;13.40;;;28.50;99.90;;;;;;5128389;27;20844;-80
2022/05/18 13:35:41;;;;;;;17.40;13.88;;;28.40;99.90;;;;;;5121655;27;20412;-80
2022/05/18 13:38:21;;;;;;;17.70;14.32;;;28.50;99.90;;;;;;5118782;27;20425;-80